sensor_id;sensor_type;location;lat;lon;timestamp;P1;durP1;ratioP1;P2;durP2;ratioP2
48975;SDS011;34791;52.752;8.346;2023-04-03T00:01:55;9.87;;;2.03;;
48975;SDS011;34791;52.752;8.346;2023-04-03T00:04:20;9.63;;;2.17;;
48975;SDS011;34791;52.752;8.346;2023-04-03T00:06:46;9.20;;;2.57;;
48975;SDS011;34791;52.752;8.346;2023-04-03T00:09:12;4.17;;;1.60;;
48975;SDS011;34791;52.752;8.346;2023-04-03T00:11:37;9.63;;;2.37;;
48975;SDS011;34791;52.752;8.346;2023-04-03T00:14:03;5.83;;;1.60;;
48975;SDS011;34791;52.752;8.346;2023-04-03T00:16:28;9.80;;;2.37;;
48975;SDS011;34791;52.752;8.346;2023-04-03T00:18:54;6.33;;;2.03;;
48975;SDS011;34791;52.752;8.346;2023-04-03T00:21:19;6.50;;;1.90;;
48975;SDS011;34791;52.752;8.346;2023-04-03T00:23:45;9.07;;;1.90;;
48975;SDS011;34791;52.752;8.346;2023-04-03T00:26:10;6.07;;;2.10;;
48975;SDS011;34791;52.752;8.346;2023-04-03T00:28:36;8.70;;;1.90;;
48975;SDS011;34791;52.752;8.346;2023-04-03T00:31:02;5.33;;;2.00;;
48975;SDS011;34791;52.752;8.346;2023-04-03T00:33:28;8.63;;;2.10;;
48975;SDS011;34791;52.752;8.346;2023-04-03T00:35:53;8.93;;;2.30;;
48975;SDS011;34791;52.752;8.346;2023-04-03T00:38:19;5.47;;;1.70;;
48975;SDS011;34791;52.752;8.346;2023-04-03T00:40:45;9.43;;;2.20;;
48975;SDS011;34791;52.752;8.346;2023-04-03T00:43:16;6.50;;;2.17;;
48975;SDS011;34791;52.752;8.346;2023-04-03T00:48:12;5.30;;;2.10;;
48975;SDS011;34791;52.752;8.346;2023-04-03T00:50:42;7.40;;;2.05;;
48975;SDS011;34791;52.752;8.346;2023-04-03T00:53:11;7.27;;;2.23;;
48975;SDS011;34791;52.752;8.346;2023-04-03T00:55:41;5.53;;;2.00;;
48975;SDS011;34791;52.752;8.346;2023-04-03T00:58:08;4.90;;;1.77;;
48975;SDS011;34791;52.752;8.346;2023-04-03T01:03:56;6.43;;;2.38;;
48975;SDS011;34791;52.752;8.346;2023-04-03T01:06:24;6.77;;;2.23;;
48975;SDS011;34791;52.752;8.346;2023-04-03T01:08:55;8.57;;;2.40;;
48975;SDS011;34791;52.752;8.346;2023-04-03T01:11:21;9.10;;;2.27;;
48975;SDS011;34791;52.752;8.346;2023-04-03T01:13:47;8.80;;;2.00;;
48975;SDS011;34791;52.752;8.346;2023-04-03T01:16:14;10.77;;;2.20;;
48975;SDS011;34791;52.752;8.346;2023-04-03T01:18:39;9.77;;;2.47;;
48975;SDS011;34791;52.752;8.346;2023-04-03T01:24:36;9.43;;;2.37;;
48975;SDS011;34791;52.752;8.346;2023-04-03T01:27:04;8.53;;;2.60;;
48975;SDS011;34791;52.752;8.346;2023-04-03T01:29:31;7.17;;;2.20;;
48975;SDS011;34791;52.752;8.346;2023-04-03T01:31:57;8.90;;;2.47;;
48975;SDS011;34791;52.752;8.346;2023-04-03T01:34:25;9.40;;;2.20;;
48975;SDS011;34791;52.752;8.346;2023-04-03T01:36:51;6.43;;;2.07;;
48975;SDS011;34791;52.752;8.346;2023-04-03T01:39:18;8.03;;;2.20;;
48975;SDS011;34791;52.752;8.346;2023-04-03T01:41:44;13.37;;;2.60;;
48975;SDS011;34791;52.752;8.346;2023-04-03T01:44:10;8.60;;;2.70;;
48975;SDS011;34791;52.752;8.346;2023-04-03T01:46:35;8.73;;;2.10;;
48975;SDS011;34791;52.752;8.346;2023-04-03T01:49:02;7.07;;;2.00;;
48975;SDS011;34791;52.752;8.346;2023-04-03T01:51:28;11.13;;;2.37;;
48975;SDS011;34791;52.752;8.346;2023-04-03T01:53:54;8.07;;;2.57;;
48975;SDS011;34791;52.752;8.346;2023-04-03T01:56:19;10.50;;;2.60;;
48975;SDS011;34791;52.752;8.346;2023-04-03T01:58:45;7.13;;;2.20;;
48975;SDS011;34791;52.752;8.346;2023-04-03T02:01:10;6.93;;;2.00;;
48975;SDS011;34791;52.752;8.346;2023-04-03T02:03:36;8.17;;;2.27;;
48975;SDS011;34791;52.752;8.346;2023-04-03T02:06:01;6.13;;;2.00;;
48975;SDS011;34791;52.752;8.346;2023-04-03T02:08:27;4.60;;;1.97;;
48975;SDS011;34791;52.752;8.346;2023-04-03T02:10:52;8.23;;;2.10;;
48975;SDS011;34791;52.752;8.346;2023-04-03T02:13:18;5.97;;;1.50;;
48975;SDS011;34791;52.752;8.346;2023-04-03T02:15:44;8.07;;;2.20;;
48975;SDS011;34791;52.752;8.346;2023-04-03T02:18:10;7.63;;;2.23;;
48975;SDS011;34791;52.752;8.346;2023-04-03T02:20:36;8.23;;;2.20;;
48975;SDS011;34791;52.752;8.346;2023-04-03T02:23:02;7.27;;;2.10;;
48975;SDS011;34791;52.752;8.346;2023-04-03T02:25:30;4.53;;;1.70;;
48975;SDS011;34791;52.752;8.346;2023-04-03T02:27:56;8.77;;;2.10;;
48975;SDS011;34791;52.752;8.346;2023-04-03T02:30:21;7.53;;;1.93;;
48975;SDS011;34791;52.752;8.346;2023-04-03T02:32:47;9.93;;;2.27;;
48975;SDS011;34791;52.752;8.346;2023-04-03T02:35:12;7.47;;;2.33;;
48975;SDS011;34791;52.752;8.346;2023-04-03T02:37:38;7.00;;;2.40;;
48975;SDS011;34791;52.752;8.346;2023-04-03T02:40:04;6.40;;;2.67;;
48975;SDS011;34791;52.752;8.346;2023-04-03T02:42:31;9.87;;;2.80;;
48975;SDS011;34791;52.752;8.346;2023-04-03T02:44:57;11.23;;;2.63;;
48975;SDS011;34791;52.752;8.346;2023-04-03T02:47:22;10.53;;;2.07;;
48975;SDS011;34791;52.752;8.346;2023-04-03T02:49:48;11.03;;;3.37;;
48975;SDS011;34791;52.752;8.346;2023-04-03T02:52:13;9.13;;;2.43;;
48975;SDS011;34791;52.752;8.346;2023-04-03T02:54:39;6.23;;;2.20;;
48975;SDS011;34791;52.752;8.346;2023-04-03T02:57:05;7.43;;;2.03;;
48975;SDS011;34791;52.752;8.346;2023-04-03T02:59:34;9.27;;;2.00;;
48975;SDS011;34791;52.752;8.346;2023-04-03T03:02:00;10.73;;;2.50;;
48975;SDS011;34791;52.752;8.346;2023-04-03T03:04:26;8.80;;;2.00;;
48975;SDS011;34791;52.752;8.346;2023-04-03T03:06:51;8.17;;;2.03;;
48975;SDS011;34791;52.752;8.346;2023-04-03T03:09:17;6.30;;;2.10;;
48975;SDS011;34791;52.752;8.346;2023-04-03T03:11:42;7.53;;;1.90;;
48975;SDS011;34791;52.752;8.346;2023-04-03T03:14:08;6.03;;;1.87;;
48975;SDS011;34791;52.752;8.346;2023-04-03T03:16:34;11.77;;;3.23;;
48975;SDS011;34791;52.752;8.346;2023-04-03T03:18:59;8.97;;;2.10;;
48975;SDS011;34791;52.752;8.346;2023-04-03T03:21:25;12.53;;;2.40;;
48975;SDS011;34791;52.752;8.346;2023-04-03T03:23:51;7.93;;;2.23;;
48975;SDS011;34791;52.752;8.346;2023-04-03T03:26:16;9.07;;;3.10;;
48975;SDS011;34791;52.752;8.346;2023-04-03T03:28:42;6.00;;;2.07;;
48975;SDS011;34791;52.752;8.346;2023-04-03T03:31:08;9.03;;;2.87;;
48975;SDS011;34791;52.752;8.346;2023-04-03T03:33:34;8.73;;;2.17;;
48975;SDS011;34791;52.752;8.346;2023-04-03T03:35:59;10.07;;;2.43;;
48975;SDS011;34791;52.752;8.346;2023-04-03T03:38:25;7.60;;;2.13;;
48975;SDS011;34791;52.752;8.346;2023-04-03T03:40:51;8.77;;;1.93;;
48975;SDS011;34791;52.752;8.346;2023-04-03T03:43:17;10.00;;;2.80;;
48975;SDS011;34791;52.752;8.346;2023-04-03T03:45:43;10.10;;;2.43;;
48975;SDS011;34791;52.752;8.346;2023-04-03T03:48:09;13.07;;;2.63;;
48975;SDS011;34791;52.752;8.346;2023-04-03T03:50:35;8.17;;;2.40;;
48975;SDS011;34791;52.752;8.346;2023-04-03T03:53:00;8.27;;;2.70;;
48975;SDS011;34791;52.752;8.346;2023-04-03T03:55:26;12.00;;;2.37;;
48975;SDS011;34791;52.752;8.346;2023-04-03T03:57:52;13.17;;;2.40;;
48975;SDS011;34791;52.752;8.346;2023-04-03T04:00:17;9.03;;;2.73;;
48975;SDS011;34791;52.752;8.346;2023-04-03T04:02:43;13.63;;;2.30;;
48975;SDS011;34791;52.752;8.346;2023-04-03T04:05:09;9.03;;;2.23;;
48975;SDS011;34791;52.752;8.346;2023-04-03T04:07:35;7.60;;;2.30;;
48975;SDS011;34791;52.752;8.346;2023-04-03T04:10:00;7.53;;;2.23;;
48975;SDS011;34791;52.752;8.346;2023-04-03T04:12:26;7.67;;;2.40;;
48975;SDS011;34791;52.752;8.346;2023-04-03T04:14:52;8.17;;;2.30;;
48975;SDS011;34791;52.752;8.346;2023-04-03T04:17:17;10.23;;;2.50;;
48975;SDS011;34791;52.752;8.346;2023-04-03T04:19:43;8.33;;;2.67;;
48975;SDS011;34791;52.752;8.346;2023-04-03T04:22:08;11.10;;;2.77;;
48975;SDS011;34791;52.752;8.346;2023-04-03T04:24:34;8.07;;;2.30;;
48975;SDS011;34791;52.752;8.346;2023-04-03T04:26:59;9.97;;;2.30;;
48975;SDS011;34791;52.752;8.346;2023-04-03T04:29:25;15.27;;;2.50;;
48975;SDS011;34791;52.752;8.346;2023-04-03T04:31:50;8.83;;;2.80;;
48975;SDS011;34791;52.752;8.346;2023-04-03T04:34:16;13.13;;;2.60;;
48975;SDS011;34791;52.752;8.346;2023-04-03T04:36:41;10.47;;;2.93;;
48975;SDS011;34791;52.752;8.346;2023-04-03T04:39:07;12.47;;;2.97;;
48975;SDS011;34791;52.752;8.346;2023-04-03T04:41:33;9.90;;;2.30;;
48975;SDS011;34791;52.752;8.346;2023-04-03T04:43:59;17.53;;;2.70;;
48975;SDS011;34791;52.752;8.346;2023-04-03T04:46:25;13.33;;;3.10;;
48975;SDS011;34791;52.752;8.346;2023-04-03T04:48:51;10.80;;;3.10;;
48975;SDS011;34791;52.752;8.346;2023-04-03T04:51:16;15.23;;;3.77;;
48975;SDS011;34791;52.752;8.346;2023-04-03T04:53:42;12.30;;;2.90;;
48975;SDS011;34791;52.752;8.346;2023-04-03T04:56:08;10.00;;;3.00;;
48975;SDS011;34791;52.752;8.346;2023-04-03T04:58:33;10.17;;;2.90;;
48975;SDS011;34791;52.752;8.346;2023-04-03T05:01:00;8.90;;;2.70;;
48975;SDS011;34791;52.752;8.346;2023-04-03T05:03:29;8.00;;;2.60;;
48975;SDS011;34791;52.752;8.346;2023-04-03T05:05:55;11.93;;;2.97;;
48975;SDS011;34791;52.752;8.346;2023-04-03T05:08:21;11.17;;;2.67;;
48975;SDS011;34791;52.752;8.346;2023-04-03T05:10:46;8.10;;;2.70;;
48975;SDS011;34791;52.752;8.346;2023-04-03T05:13:12;9.77;;;2.70;;
48975;SDS011;34791;52.752;8.346;2023-04-03T05:15:38;13.57;;;3.20;;
48975;SDS011;34791;52.752;8.346;2023-04-03T05:18:04;12.23;;;3.57;;
48975;SDS011;34791;52.752;8.346;2023-04-03T05:20:30;9.77;;;2.47;;
48975;SDS011;34791;52.752;8.346;2023-04-03T05:22:56;6.87;;;2.57;;
48975;SDS011;34791;52.752;8.346;2023-04-03T05:25:21;11.67;;;3.07;;
48975;SDS011;34791;52.752;8.346;2023-04-03T05:27:47;10.20;;;2.47;;
48975;SDS011;34791;52.752;8.346;2023-04-03T05:30:12;9.37;;;2.50;;
48975;SDS011;34791;52.752;8.346;2023-04-03T05:32:38;7.97;;;2.40;;
48975;SDS011;34791;52.752;8.346;2023-04-03T05:35:05;6.00;;;2.33;;
48975;SDS011;34791;52.752;8.346;2023-04-03T05:37:32;8.47;;;2.53;;
48975;SDS011;34791;52.752;8.346;2023-04-03T05:39:58;9.13;;;2.20;;
48975;SDS011;34791;52.752;8.346;2023-04-03T05:42:24;9.30;;;2.30;;
48975;SDS011;34791;52.752;8.346;2023-04-03T05:44:49;8.93;;;2.80;;
48975;SDS011;34791;52.752;8.346;2023-04-03T05:47:15;7.13;;;1.70;;
48975;SDS011;34791;52.752;8.346;2023-04-03T05:49:41;9.37;;;2.37;;
48975;SDS011;34791;52.752;8.346;2023-04-03T05:52:13;8.10;;;2.20;;
48975;SDS011;34791;52.752;8.346;2023-04-03T05:54:47;10.93;;;2.40;;
48975;SDS011;34791;52.752;8.346;2023-04-03T05:57:13;6.70;;;2.20;;
48975;SDS011;34791;52.752;8.346;2023-04-03T05:59:39;9.03;;;2.23;;
48975;SDS011;34791;52.752;8.346;2023-04-03T06:02:05;8.03;;;2.20;;
48975;SDS011;34791;52.752;8.346;2023-04-03T06:04:31;7.67;;;2.40;;
48975;SDS011;34791;52.752;8.346;2023-04-03T06:06:57;9.13;;;2.20;;
48975;SDS011;34791;52.752;8.346;2023-04-03T06:09:24;7.13;;;2.73;;
48975;SDS011;34791;52.752;8.346;2023-04-03T06:11:51;7.53;;;1.53;;
48975;SDS011;34791;52.752;8.346;2023-04-03T06:14:17;6.17;;;1.70;;
48975;SDS011;34791;52.752;8.346;2023-04-03T06:16:43;8.07;;;1.97;;
48975;SDS011;34791;52.752;8.346;2023-04-03T06:19:10;7.23;;;1.97;;
48975;SDS011;34791;52.752;8.346;2023-04-03T06:21:36;5.47;;;1.90;;
48975;SDS011;34791;52.752;8.346;2023-04-03T06:24:02;7.47;;;1.67;;
48975;SDS011;34791;52.752;8.346;2023-04-03T06:26:29;4.60;;;1.40;;
48975;SDS011;34791;52.752;8.346;2023-04-03T06:28:55;8.60;;;1.60;;
48975;SDS011;34791;52.752;8.346;2023-04-03T06:31:21;6.17;;;2.07;;
48975;SDS011;34791;52.752;8.346;2023-04-03T06:33:46;4.13;;;1.70;;
48975;SDS011;34791;52.752;8.346;2023-04-03T06:36:12;6.13;;;1.40;;
48975;SDS011;34791;52.752;8.346;2023-04-03T06:38:37;7.27;;;2.03;;
48975;SDS011;34791;52.752;8.346;2023-04-03T06:41:03;8.00;;;1.80;;
48975;SDS011;34791;52.752;8.346;2023-04-03T06:43:29;3.83;;;1.23;;
48975;SDS011;34791;52.752;8.346;2023-04-03T06:45:56;7.00;;;1.60;;
48975;SDS011;34791;52.752;8.346;2023-04-03T06:48:21;10.03;;;1.83;;
48975;SDS011;34791;52.752;8.346;2023-04-03T06:50:47;5.87;;;1.50;;
48975;SDS011;34791;52.752;8.346;2023-04-03T06:53:12;7.77;;;1.90;;
48975;SDS011;34791;52.752;8.346;2023-04-03T06:55:38;5.87;;;1.50;;
48975;SDS011;34791;52.752;8.346;2023-04-03T06:58:04;6.57;;;1.57;;
48975;SDS011;34791;52.752;8.346;2023-04-03T07:00:30;5.50;;;1.23;;
48975;SDS011;34791;52.752;8.346;2023-04-03T07:02:55;5.03;;;1.17;;
48975;SDS011;34791;52.752;8.346;2023-04-03T07:05:22;3.63;;;1.10;;
48975;SDS011;34791;52.752;8.346;2023-04-03T07:07:48;4.40;;;1.20;;
48975;SDS011;34791;52.752;8.346;2023-04-03T07:10:14;7.90;;;1.67;;
48975;SDS011;34791;52.752;8.346;2023-04-03T07:12:40;9.50;;;2.50;;
48975;SDS011;34791;52.752;8.346;2023-04-03T07:15:06;2.97;;;1.00;;
48975;SDS011;34791;52.752;8.346;2023-04-03T07:17:32;5.77;;;1.27;;
48975;SDS011;34791;52.752;8.346;2023-04-03T07:19:57;5.30;;;1.40;;
48975;SDS011;34791;52.752;8.346;2023-04-03T07:22:23;7.07;;;1.47;;
48975;SDS011;34791;52.752;8.346;2023-04-03T07:24:48;5.70;;;1.40;;
48975;SDS011;34791;52.752;8.346;2023-04-03T07:27:14;7.57;;;1.60;;
48975;SDS011;34791;52.752;8.346;2023-04-03T07:29:39;5.90;;;1.30;;
48975;SDS011;34791;52.752;8.346;2023-04-03T07:32:05;5.80;;;1.37;;
48975;SDS011;34791;52.752;8.346;2023-04-03T07:34:32;5.73;;;1.33;;
48975;SDS011;34791;52.752;8.346;2023-04-03T07:36:58;2.93;;;0.90;;
48975;SDS011;34791;52.752;8.346;2023-04-03T07:39:24;4.33;;;1.30;;
48975;SDS011;34791;52.752;8.346;2023-04-03T07:41:50;4.83;;;1.23;;
48975;SDS011;34791;52.752;8.346;2023-04-03T07:44:15;3.93;;;1.40;;
48975;SDS011;34791;52.752;8.346;2023-04-03T07:46:40;4.40;;;1.37;;
48975;SDS011;34791;52.752;8.346;2023-04-03T07:49:07;6.13;;;1.37;;
48975;SDS011;34791;52.752;8.346;2023-04-03T07:51:33;5.67;;;1.30;;
48975;SDS011;34791;52.752;8.346;2023-04-03T07:53:58;6.33;;;1.30;;
48975;SDS011;34791;52.752;8.346;2023-04-03T07:56:24;2.07;;;0.70;;
48975;SDS011;34791;52.752;8.346;2023-04-03T07:58:50;2.07;;;0.93;;
48975;SDS011;34791;52.752;8.346;2023-04-03T08:01:15;3.03;;;0.90;;
48975;SDS011;34791;52.752;8.346;2023-04-03T08:03:41;2.83;;;0.90;;
48975;SDS011;34791;52.752;8.346;2023-04-03T08:06:07;2.03;;;0.90;;
48975;SDS011;34791;52.752;8.346;2023-04-03T08:08:33;3.77;;;0.70;;
48975;SDS011;34791;52.752;8.346;2023-04-03T08:11:00;3.20;;;1.00;;
48975;SDS011;34791;52.752;8.346;2023-04-03T08:13:27;4.57;;;1.07;;
48975;SDS011;34791;52.752;8.346;2023-04-03T08:15:54;3.10;;;0.90;;
48975;SDS011;34791;52.752;8.346;2023-04-03T08:18:22;5.10;;;1.23;;
48975;SDS011;34791;52.752;8.346;2023-04-03T08:20:49;3.83;;;0.90;;
48975;SDS011;34791;52.752;8.346;2023-04-03T08:23:15;4.87;;;0.90;;
48975;SDS011;34791;52.752;8.346;2023-04-03T08:25:41;3.47;;;1.27;;
48975;SDS011;34791;52.752;8.346;2023-04-03T08:28:08;4.47;;;1.00;;
48975;SDS011;34791;52.752;8.346;2023-04-03T08:30:40;4.30;;;0.93;;
48975;SDS011;34791;52.752;8.346;2023-04-03T08:33:07;4.40;;;1.00;;
48975;SDS011;34791;52.752;8.346;2023-04-03T08:35:33;6.67;;;1.10;;
48975;SDS011;34791;52.752;8.346;2023-04-03T08:38:02;6.60;;;1.10;;
48975;SDS011;34791;52.752;8.346;2023-04-03T08:40:28;2.23;;;0.70;;
48975;SDS011;34791;52.752;8.346;2023-04-03T08:43:03;3.93;;;0.80;;
48975;SDS011;34791;52.752;8.346;2023-04-03T08:46:02;4.23;;;0.73;;
48975;SDS011;34791;52.752;8.346;2023-04-03T08:48:32;3.50;;;0.80;;
48975;SDS011;34791;52.752;8.346;2023-04-03T08:51:03;2.03;;;0.63;;
48975;SDS011;34791;52.752;8.346;2023-04-03T08:53:37;2.23;;;0.70;;
48975;SDS011;34791;52.752;8.346;2023-04-03T08:56:10;2.90;;;0.90;;
48975;SDS011;34791;52.752;8.346;2023-04-03T08:58:50;2.27;;;0.60;;
48975;SDS011;34791;52.752;8.346;2023-04-03T09:01:23;2.10;;;0.73;;
48975;SDS011;34791;52.752;8.346;2023-04-03T09:03:53;3.45;;;0.90;;
48975;SDS011;34791;52.752;8.346;2023-04-03T09:15:08;2.17;;;0.60;;
48975;SDS011;34791;52.752;8.346;2023-04-03T09:21:01;3.80;;;0.77;;
48975;SDS011;34791;52.752;8.346;2023-04-03T09:23:48;1.90;;;0.60;;
48975;SDS011;34791;52.752;8.346;2023-04-03T09:26:23;2.90;;;1.07;;
48975;SDS011;34791;52.752;8.346;2023-04-03T09:28:54;1.50;;;0.70;;
48975;SDS011;34791;52.752;8.346;2023-04-03T09:31:24;2.27;;;0.80;;
48975;SDS011;34791;52.752;8.346;2023-04-03T09:33:53;3.60;;;0.80;;
48975;SDS011;34791;52.752;8.346;2023-04-03T09:39:15;3.13;;;0.67;;
48975;SDS011;34791;52.752;8.346;2023-04-03T09:41:54;5.00;;;0.90;;
48975;SDS011;34791;52.752;8.346;2023-04-03T09:44:35;3.53;;;1.00;;
48975;SDS011;34791;52.752;8.346;2023-04-03T09:49:52;6.60;;;1.13;;
48975;SDS011;34791;52.752;8.346;2023-04-03T09:52:45;3.23;;;1.10;;
48975;SDS011;34791;52.752;8.346;2023-04-03T09:55:19;4.03;;;0.90;;
48975;SDS011;34791;52.752;8.346;2023-04-03T09:58:02;3.03;;;1.00;;
48975;SDS011;34791;52.752;8.346;2023-04-03T10:00:33;1.43;;;0.50;;
48975;SDS011;34791;52.752;8.346;2023-04-03T10:03:02;3.37;;;0.87;;
48975;SDS011;34791;52.752;8.346;2023-04-03T10:05:33;1.43;;;0.60;;
48975;SDS011;34791;52.752;8.346;2023-04-03T10:11:11;6.03;;;0.90;;
48975;SDS011;34791;52.752;8.346;2023-04-03T10:13:51;1.40;;;0.60;;
48975;SDS011;34791;52.752;8.346;2023-04-03T10:16:25;5.47;;;1.23;;
48975;SDS011;34791;52.752;8.346;2023-04-03T10:19:00;3.57;;;0.90;;
48975;SDS011;34791;52.752;8.346;2023-04-03T10:21:40;2.20;;;0.70;;
48975;SDS011;34791;52.752;8.346;2023-04-03T10:24:35;4.97;;;1.10;;
48975;SDS011;34791;52.752;8.346;2023-04-03T10:30:21;1.43;;;0.70;;
48975;SDS011;34791;52.752;8.346;2023-04-03T10:34:29;2.60;;;0.90;;
48975;SDS011;34791;52.752;8.346;2023-04-03T10:37:27;2.27;;;0.80;;
48975;SDS011;34791;52.752;8.346;2023-04-03T10:39:39;2.40;;;0.70;;
48975;SDS011;34791;52.752;8.346;2023-04-03T10:45:43;4.13;;;1.00;;
48975;SDS011;34791;52.752;8.346;2023-04-03T10:48:34;2.50;;;0.70;;
48975;SDS011;34791;52.752;8.346;2023-04-03T10:51:42;2.27;;;0.80;;
48975;SDS011;34791;52.752;8.346;2023-04-03T10:57:05;3.13;;;0.90;;
48975;SDS011;34791;52.752;8.346;2023-04-03T10:59:41;1.67;;;0.80;;
48975;SDS011;34791;52.752;8.346;2023-04-03T11:02:36;1.37;;;0.70;;
48975;SDS011;34791;52.752;8.346;2023-04-03T11:05:13;2.50;;;0.80;;
48975;SDS011;34791;52.752;8.346;2023-04-03T11:07:45;2.13;;;0.73;;
48975;SDS011;34791;52.752;8.346;2023-04-03T11:10:24;5.10;;;0.97;;
48975;SDS011;34791;52.752;8.346;2023-04-03T11:13:16;1.52;;;0.70;;
48975;SDS011;34791;52.752;8.346;2023-04-03T11:15:46;2.87;;;0.93;;
48975;SDS011;34791;52.752;8.346;2023-04-03T11:18:35;4.00;;;1.00;;
48975;SDS011;34791;52.752;8.346;2023-04-03T11:21:28;4.10;;;1.00;;
48975;SDS011;34791;52.752;8.346;2023-04-03T11:23:57;3.30;;;0.80;;
48975;SDS011;34791;52.752;8.346;2023-04-03T11:26:25;2.00;;;0.70;;
48975;SDS011;34791;52.752;8.346;2023-04-03T11:29:03;2.50;;;0.60;;
48975;SDS011;34791;52.752;8.346;2023-04-03T11:31:39;3.93;;;0.80;;
48975;SDS011;34791;52.752;8.346;2023-04-03T11:34:31;3.47;;;1.27;;
48975;SDS011;34791;52.752;8.346;2023-04-03T11:37:01;2.90;;;0.80;;
48975;SDS011;34791;52.752;8.346;2023-04-03T11:39:32;1.60;;;0.73;;
48975;SDS011;34791;52.752;8.346;2023-04-03T11:45:22;1.37;;;0.60;;
48975;SDS011;34791;52.752;8.346;2023-04-03T11:48:01;0.88;;;0.50;;
48975;SDS011;34791;52.752;8.346;2023-04-03T11:56:27;2.83;;;0.80;;
48975;SDS011;34791;52.752;8.346;2023-04-03T11:59:15;3.60;;;0.90;;
48975;SDS011;34791;52.752;8.346;2023-04-03T12:01:55;4.10;;;0.90;;
48975;SDS011;34791;52.752;8.346;2023-04-03T12:04:24;2.23;;;0.57;;
48975;SDS011;34791;52.752;8.346;2023-04-03T12:06:58;7.07;;;0.57;;
48975;SDS011;34791;52.752;8.346;2023-04-03T12:09:34;4.33;;;0.60;;
48975;SDS011;34791;52.752;8.346;2023-04-03T12:12:36;2.20;;;0.70;;
48975;SDS011;34791;52.752;8.346;2023-04-03T12:15:24;1.33;;;0.50;;
48975;SDS011;34791;52.752;8.346;2023-04-03T12:17:52;2.50;;;0.90;;
48975;SDS011;34791;52.752;8.346;2023-04-03T12:23:28;4.13;;;1.10;;
48975;SDS011;34791;52.752;8.346;2023-04-03T12:26:18;3.83;;;0.90;;
48975;SDS011;34791;52.752;8.346;2023-04-03T12:28:52;1.83;;;0.70;;
48975;SDS011;34791;52.752;8.346;2023-04-03T12:31:20;2.70;;;0.80;;
48975;SDS011;34791;52.752;8.346;2023-04-03T12:44:21;2.90;;;0.70;;
48975;SDS011;34791;52.752;8.346;2023-04-03T12:46:45;2.47;;;0.90;;
48975;SDS011;34791;52.752;8.346;2023-04-03T12:52:52;3.27;;;1.07;;
48975;SDS011;34791;52.752;8.346;2023-04-03T12:55:03;3.87;;;0.90;;
48975;SDS011;34791;52.752;8.346;2023-04-03T12:57:38;3.20;;;1.00;;
48975;SDS011;34791;52.752;8.346;2023-04-03T13:00:20;2.63;;;0.80;;
48975;SDS011;34791;52.752;8.346;2023-04-03T13:02:58;4.00;;;1.00;;
48975;SDS011;34791;52.752;8.346;2023-04-03T13:05:24;2.87;;;1.13;;
48975;SDS011;34791;52.752;8.346;2023-04-03T13:07:58;2.27;;;0.83;;
48975;SDS011;34791;52.752;8.346;2023-04-03T13:10:28;3.77;;;0.90;;
48975;SDS011;34791;52.752;8.346;2023-04-03T13:12:57;3.00;;;1.03;;
48975;SDS011;34791;52.752;8.346;2023-04-03T13:15:41;2.47;;;0.90;;
48975;SDS011;34791;52.752;8.346;2023-04-03T13:18:22;4.43;;;1.20;;
48975;SDS011;34791;52.752;8.346;2023-04-03T13:21:00;3.73;;;1.13;;
48975;SDS011;34791;52.752;8.346;2023-04-03T13:23:38;3.27;;;0.90;;
48975;SDS011;34791;52.752;8.346;2023-04-03T13:26:07;3.77;;;0.97;;
48975;SDS011;34791;52.752;8.346;2023-04-03T13:28:33;3.67;;;1.20;;
48975;SDS011;34791;52.752;8.346;2023-04-03T13:31:02;2.93;;;0.90;;
48975;SDS011;34791;52.752;8.346;2023-04-03T13:33:32;2.78;;;0.95;;
48975;SDS011;34791;52.752;8.346;2023-04-03T13:38:57;3.93;;;1.13;;
48975;SDS011;34791;52.752;8.346;2023-04-03T13:41:38;4.00;;;1.27;;
48975;SDS011;34791;52.752;8.346;2023-04-03T13:50:04;3.70;;;1.10;;
48975;SDS011;34791;52.752;8.346;2023-04-03T13:53:00;2.40;;;0.83;;
48975;SDS011;34791;52.752;8.346;2023-04-03T13:55:28;2.38;;;0.93;;
48975;SDS011;34791;52.752;8.346;2023-04-03T13:58:03;2.35;;;0.63;;
48975;SDS011;34791;52.752;8.346;2023-04-03T14:00:50;2.97;;;1.03;;
48975;SDS011;34791;52.752;8.346;2023-04-03T14:03:22;5.73;;;1.10;;
48975;SDS011;34791;52.752;8.346;2023-04-03T14:05:53;3.53;;;1.10;;
48975;SDS011;34791;52.752;8.346;2023-04-03T14:08:20;4.50;;;1.40;;
48975;SDS011;34791;52.752;8.346;2023-04-03T14:10:46;4.93;;;1.20;;
48975;SDS011;34791;52.752;8.346;2023-04-03T14:13:15;3.20;;;1.20;;
48975;SDS011;34791;52.752;8.346;2023-04-03T14:15:43;3.60;;;1.08;;
48975;SDS011;34791;52.752;8.346;2023-04-03T14:18:11;2.53;;;1.03;;
48975;SDS011;34791;52.752;8.346;2023-04-03T14:20:38;4.57;;;1.20;;
48975;SDS011;34791;52.752;8.346;2023-04-03T14:23:03;3.77;;;1.27;;
48975;SDS011;34791;52.752;8.346;2023-04-03T14:25:29;4.10;;;1.30;;
48975;SDS011;34791;52.752;8.346;2023-04-03T14:27:54;5.40;;;1.27;;
48975;SDS011;34791;52.752;8.346;2023-04-03T14:30:25;3.27;;;1.20;;
48975;SDS011;34791;52.752;8.346;2023-04-03T14:32:56;2.83;;;1.20;;
48975;SDS011;34791;52.752;8.346;2023-04-03T14:35:22;3.17;;;1.10;;
48975;SDS011;34791;52.752;8.346;2023-04-03T14:37:48;4.90;;;1.10;;
48975;SDS011;34791;52.752;8.346;2023-04-03T14:40:15;4.97;;;1.10;;
48975;SDS011;34791;52.752;8.346;2023-04-03T14:42:47;4.10;;;1.03;;
48975;SDS011;34791;52.752;8.346;2023-04-03T14:45:14;4.53;;;1.30;;
48975;SDS011;34791;52.752;8.346;2023-04-03T14:47:42;2.17;;;0.90;;
48975;SDS011;34791;52.752;8.346;2023-04-03T14:50:13;4.68;;;1.30;;
48975;SDS011;34791;52.752;8.346;2023-04-03T14:52:42;3.72;;;1.40;;
48975;SDS011;34791;52.752;8.346;2023-04-03T14:55:09;4.70;;;1.50;;
48975;SDS011;34791;52.752;8.346;2023-04-03T14:57:38;5.00;;;1.40;;
48975;SDS011;34791;52.752;8.346;2023-04-03T15:00:04;5.70;;;1.67;;
48975;SDS011;34791;52.752;8.346;2023-04-03T15:02:37;5.60;;;1.90;;
48975;SDS011;34791;52.752;8.346;2023-04-03T15:05:04;7.83;;;1.40;;
48975;SDS011;34791;52.752;8.346;2023-04-03T15:07:36;3.77;;;1.33;;
48975;SDS011;34791;52.752;8.346;2023-04-03T15:10:09;2.60;;;1.23;;
48975;SDS011;34791;52.752;8.346;2023-04-03T15:12:43;4.50;;;1.33;;
48975;SDS011;34791;52.752;8.346;2023-04-03T15:15:10;2.57;;;1.40;;
48975;SDS011;34791;52.752;8.346;2023-04-03T15:17:36;3.47;;;1.30;;
48975;SDS011;34791;52.752;8.346;2023-04-03T15:20:02;2.60;;;1.13;;
48975;SDS011;34791;52.752;8.346;2023-04-03T15:22:28;2.40;;;1.10;;
48975;SDS011;34791;52.752;8.346;2023-04-03T15:24:53;3.30;;;1.30;;
48975;SDS011;34791;52.752;8.346;2023-04-03T15:27:19;3.17;;;1.30;;
48975;SDS011;34791;52.752;8.346;2023-04-03T15:29:44;5.30;;;1.80;;
48975;SDS011;34791;52.752;8.346;2023-04-03T15:32:10;3.27;;;1.20;;
48975;SDS011;34791;52.752;8.346;2023-04-03T15:34:36;3.20;;;1.40;;
48975;SDS011;34791;52.752;8.346;2023-04-03T15:37:03;4.30;;;1.47;;
48975;SDS011;34791;52.752;8.346;2023-04-03T15:39:28;4.10;;;1.43;;
48975;SDS011;34791;52.752;8.346;2023-04-03T15:41:54;5.77;;;1.60;;
48975;SDS011;34791;52.752;8.346;2023-04-03T15:44:20;3.83;;;1.40;;
48975;SDS011;34791;52.752;8.346;2023-04-03T15:46:46;3.30;;;1.30;;
48975;SDS011;34791;52.752;8.346;2023-04-03T15:49:16;4.83;;;1.50;;
48975;SDS011;34791;52.752;8.346;2023-04-03T15:51:43;3.40;;;1.47;;
48975;SDS011;34791;52.752;8.346;2023-04-03T15:54:09;6.50;;;1.50;;
48975;SDS011;34791;52.752;8.346;2023-04-03T15:56:35;2.53;;;1.10;;
48975;SDS011;34791;52.752;8.346;2023-04-03T15:59:00;5.20;;;1.90;;
48975;SDS011;34791;52.752;8.346;2023-04-03T16:01:26;5.53;;;1.60;;
48975;SDS011;34791;52.752;8.346;2023-04-03T16:03:51;3.67;;;1.50;;
48975;SDS011;34791;52.752;8.346;2023-04-03T16:06:17;3.43;;;1.40;;
48975;SDS011;34791;52.752;8.346;2023-04-03T16:08:44;2.97;;;1.30;;
48975;SDS011;34791;52.752;8.346;2023-04-03T16:11:11;4.10;;;1.30;;
48975;SDS011;34791;52.752;8.346;2023-04-03T16:13:37;3.37;;;1.30;;